Latest Coastal Weather Observations for Darwin Harbour

IDD60701

Issued at 5:01 pm CST Wednesday 1 June 2016 (issued every 10 minutes, with the page automatically refreshed every 10 minutes)

About coastal observations | Map of coastal stations | Coastal observations for NT | Marine services | Other Formats
Station Details ID: 014072 Name: DARWIN NTC AWS Lat: -12.47 Lon: 130.85 Height: 0.0 m
Data from the previous 72 hours. | See also: Recent months for locations in Northern Territory
Date/Time
CST
Temp

°C
Wind Pressure Rain
since 9am
mm
Weather Cloud Vis
km
Sea
Height
m
Swell
Dir
 
Speed
knots
Gust
knots
hPa Trend Height
m
Period
s
Dir
01/05:00pm 30.7 WNW 6 10 1009.6 - - - - - - - - -
01/04:30pm 31.1 NW 5 11 1009.6 - - - - - - - - -
01/04:00pm 31.1 WSW 3 6 1009.7 - - - - - - - - -
01/03:30pm 33.1 E 4 7 1009.8 - - - - - - - - -
01/03:00pm 32.2 ESE 6 8 1009.9 - - - - - - - - -
01/02:30pm 32.0 E 6 9 1010.2 - - - - - - - - -
01/02:00pm 31.7 ESE 10 14 1010.5 - - - - - - - - -
01/01:30pm 31.4 ESE 10 12 1011.1 - - - - - - - - -
01/01:00pm 30.8 ESE 6 9 1011.7 - - - - - - - - -
01/12:30pm 30.4 SE 5 8 1012.2 - - - - - - - - -
01/12:00pm 30.0 SE 4 7 1012.5 - - - - - - - - -
01/11:30am 29.3 SE 6 8 1013.0 - - - - - - - - -
01/11:00am 28.8 SE 5 6 1013.4 - - - - - - - - -
01/10:30am 28.4 ESE 4 6 1013.8 - - - - - - - - -
01/10:00am 28.8 E 4 7 1013.9 - - - - - - - - -
01/09:30am 28.1 E 5 7 1013.8 - - - - - - - - -
01/09:00am 27.6 ESE 6 7 1014.0 - - - - - - - - -
01/08:30am 27.6 E 5 6 1014.0 - - - - - - - - -
01/08:00am 27.7 ENE 3 4 1013.8 - - - - - - - - -
01/07:30am 27.3 NE 2 4 1013.5 - - - - - - - - -
01/07:00am 26.9 ENE 3 6 1013.2 - - - - - - - - -
01/06:30am 27.4 E 5 7 1012.9 - - - - - - - - -
01/06:00am 27.4 E 4 6 1012.7 - - - - - - - - -
01/05:30am 27.2 E 6 8 1012.5 - - - - - - - - -
01/05:00am 27.4 E 5 7 1012.2 - - - - - - - - -
01/04:30am 27.8 E 4 6 1012.1 - - - - - - - - -
01/04:00am 27.0 ENE 3 5 1012.0 - - - - - - - - -
01/03:30am 26.6 ENE 3 5 1012.0 - - - - - - - - -
01/03:00am 27.4 CALM 0 1 1012.0 - - - - - - - - -
01/02:30am 27.2 NE 2 3 1012.1 - - - - - - - - -
01/02:00am 28.4 SE 1 3 1012.3 - - - - - - - - -
01/01:30am 28.3 SSW 3 4 1012.7 - - - - - - - - -
01/01:00am 28.5 SW 4 5 1012.9 - - - - - - - - -
01/12:30am 28.1 SW 6 8 1012.8 - - - - - - - - -
01/12:00am 27.8 SSW 8 10 1012.9 - - - - - - - - -
 
Date/Time
CST
Temp

°C
Wind Pressure Rain
since 9am
mm
Weather Cloud Vis
km
Sea
Height
m
Swell
Dir
 
Speed
knots
Gust
knots
hPa Trend Height
m
Period
s
Dir
31/11:30pm 28.1 SSW 5 8 1012.9 - - - - - - - - -
31/11:00pm 28.6 S 2 3 1012.8 - - - - - - - - -
31/10:30pm 28.3 ESE 1 3 1012.8 - - - - - - - - -
31/10:00pm 28.5 NE 1 3 1012.7 - - - - - - - - -
31/09:30pm 28.3 NE 3 4 1012.5 - - - - - - - - -
31/09:00pm 28.3 NE 3 5 1012.2 - - - - - - - - -
31/08:30pm 28.5 NE 3 6 1012.0 - - - - - - - - -
31/08:00pm 28.5 NE 4 7 1011.7 - - - - - - - - -
31/07:30pm 28.9 NE 3 7 1011.3 - - - - - - - - -
31/07:00pm 29.0 NE 4 8 1010.8 - - - - - - - - -
31/06:30pm 29.5 NE 5 9 1010.6 - - - - - - - - -
31/06:00pm 29.9 NNE 7 13 1010.0 - - - - - - - - -
31/05:30pm 31.0 N 6 11 1010.2 - - - - - - - - -
31/05:00pm 31.0 N 5 9 1009.8 - - - - - - - - -
31/04:30pm 30.4 NW 7 11 1009.8 - - - - - - - - -
31/04:00pm 30.2 WNW 8 12 1009.9 - - - - - - - - -
31/03:30pm 31.0 NNW 4 9 1010.0 - - - - - - - - -
31/03:00pm 32.7 ENE 3 5 1010.2 - - - - - - - - -
31/02:30pm 32.2 E 7 9 1010.4 - - - - - - - - -
31/02:00pm 31.8 E 7 10 1010.7 - - - - - - - - -
31/01:30pm 31.0 E 8 10 1011.2 - - - - - - - - -
31/01:00pm 30.7 E 6 8 1011.7 - - - - - - - - -
31/12:30pm 29.9 ESE 7 10 1012.3 - - - - - - - - -
31/12:00pm 29.7 ESE 8 11 1012.7 - - - - - - - - -
31/11:30am 29.3 ESE 10 12 1013.1 - - - - - - - - -
31/11:00am 28.7 ESE 9 11 1013.6 - - - - - - - - -
31/10:30am 28.6 E 11 13 1013.8 - - - - - - - - -
31/10:00am 28.5 E 11 15 1014.0 - - - - - - - - -
31/09:30am 28.1 E 11 15 1014.0 - - - - - - - - -
31/09:00am 27.3 E 9 11 1013.9 - - - - - - - - -
31/08:30am 27.1 E 10 13 1013.6 - - - - - - - - -
31/08:00am 26.9 E 10 12 1013.3 - - - - - - - - -
31/07:30am 26.8 E 10 14 1013.0 - - - - - - - - -
31/07:00am 26.7 E 10 12 1012.8 - - - - - - - - -
31/06:30am 26.7 ESE 8 11 1012.6 - - - - - - - - -
31/06:00am 26.8 ESE 9 12 1012.4 - - - - - - - - -
31/05:30am 26.9 ESE 7 9 1012.2 - - - - - - - - -
31/05:00am 26.9 SE 6 7 1012.0 - - - - - - - - -
31/04:30am 27.2 ESE 6 8 1012.0 - - - - - - - - -
31/04:00am 27.2 ESE 8 9 1012.0 - - - - - - - - -
31/03:30am 27.3 SE 7 9 1012.1 - - - - - - - - -
31/03:00am 27.3 SE 7 9 1012.1 - - - - - - - - -
31/02:30am 27.4 SSE 7 9 1012.2 - - - - - - - - -
31/02:00am 27.7 SE 5 7 1012.2 - - - - - - - - -
31/01:30am 28.1 E 4 6 1012.3 - - - - - - - - -
31/01:00am 27.8 E 4 6 1012.1 - - - - - - - - -
31/12:30am 27.9 NE 2 5 1012.1 - - - - - - - - -
31/12:00am 28.1 NE 3 6 1012.1 - - - - - - - - -
 
Date/Time
CST
Temp

°C
Wind Pressure Rain
since 9am
mm
Weather Cloud Vis
km
Sea
Height
m
Swell
Dir
 
Speed
knots
Gust
knots
hPa Trend Height
m
Period
s
Dir
30/11:30pm 28.2 NNE 3 6 1012.3 - - - - - - - - -
30/11:00pm 28.2 NE 4 8 1012.5 - - - - - - - - -
30/10:30pm 28.4 NNE 4 7 1012.5 - - - - - - - - -
30/10:00pm 28.5 NE 4 7 1012.3 - - - - - - - - -
30/09:30pm 28.7 NNE 5 8 1012.3 - - - - - - - - -
30/09:00pm 29.0 NNE 4 8 1012.1 - - - - - - - - -
30/08:30pm 29.2 NNE 5 9 1011.9 - - - - - - - - -
30/08:00pm 29.2 NE 4 9 1011.5 - - - - - - - - -
30/07:30pm 29.4 NE 6 10 1011.4 - - - - - - - - -
30/07:00pm 29.7 NE 6 11 1011.2 - - - - - - - - -
30/06:30pm 30.1 NE 5 10 1010.6 - - - - - - - - -
30/06:00pm 30.6 ENE 6 12 1010.2 - - - - - - - - -
30/05:30pm 30.9 ENE 5 11 1009.7 - - - - - - - - -
30/05:00pm 31.2 NNE 7 14 1009.4 - - - - - - - - -
30/04:30pm 32.0 NE 5 10 1009.2 - - - - - - - - -
30/04:00pm 32.5 ENE 5 8 1009.1 - - - - - - - - -
30/03:30pm 31.7 E 6 10 1009.2 - - - - - - - - -
30/03:00pm 32.1 E 7 9 1009.3 - - - - - - - - -
30/02:30pm 31.3 ESE 7 11 1009.5 - - - - - - - - -
30/02:00pm 30.9 ESE 8 11 1009.9 - - - - - - - - -
30/01:30pm 31.0 E 7 10 1010.5 - - - - - - - - -
30/01:00pm 30.9 E 8 12 1011.1 - - - - - - - - -
30/12:30pm 30.6 E 8 12 1011.6 - - - - - - - - -
30/12:00pm 30.2 E 8 11 1012.1 - - - - - - - - -
30/11:30am 30.3 ENE 8 12 1012.5 - - - - - - - - -
30/11:00am 29.4 E 10 14 1012.9 - - - - - - - - -
30/10:30am 29.0 E 9 13 1013.1 - - - - - - - - -
30/10:00am 28.5 E 7 11 1013.5 - - - - - - - - -
30/09:30am 27.0 ESE 10 13 1013.6 - - - - - - - - -
30/09:00am 26.4 SE 9 12 1013.4 - - - - - - - - -
30/08:30am 26.5 ESE 8 10 1013.3 - - - - - - - - -
30/08:00am 26.4 ESE 8 11 1013.0 - - - - - - - - -
30/07:30am 26.7 ESE 8 9 1012.5 - - - - - - - - -
30/07:00am 26.6 ESE 10 12 1012.1 - - - - - - - - -
30/06:30am 27.1 E 7 10 1011.8 - - - - - - - - -
30/06:00am 26.6 ENE 6 9 1011.5 - - - - - - - - -
30/05:30am 26.9 E 6 9 1011.4 - - - - - - - - -
30/05:00am 26.6 NNE 2 4 1011.3 - - - - - - - - -
30/04:30am 26.6 E 3 6 1011.1 - - - - - - - - -
30/04:00am 26.9 ESE 6 7 1011.0 - - - - - - - - -
30/03:30am 26.6 SE 6 8 1011.0 - - - - - - - - -
30/03:00am 27.0 SE 3 7 1011.1 - - - - - - - - -
30/02:30am 26.8 ENE 1 3 1011.1 - - - - - - - - -
30/02:00am 26.7 NE 3 5 1011.4 - - - - - - - - -
30/01:30am 27.0 NE 3 5 1011.6 - - - - - - - - -
30/01:00am 27.4 NE 3 5 1012.1 - - - - - - - - -
30/12:30am 27.7 ENE 2 4 1012.4 - - - - - - - - -
30/12:00am 27.9 ENE 2 3 1012.6 - - - - - - - - -
 
Date/Time
CST
Temp

°C
Wind Pressure Rain
since 9am
mm
Weather Cloud Vis
km
Sea
Height
m
Swell
Dir
 
Speed
knots
Gust
knots
hPa Trend Height
m
Period
s
Dir
29/11:30pm 27.8 NE 2 3 1012.5 - - - - - - - - -
29/11:00pm 27.9 NE 2 3 1012.7 - - - - - - - - -
29/10:30pm 28.2 NE 3 4 1012.5 - - - - - - - - -
29/10:00pm 28.4 NE 1 2 1012.5 - - - - - - - - -
29/09:30pm 28.9 NNE 1 3 1012.4 - - - - - - - - -
29/09:00pm 29.0 NNE 1 3 1012.2 - - - - - - - - -
29/08:30pm 29.2 N 3 4 1012.0 - - - - - - - - -
29/08:00pm 29.0 N 3 5 1011.7 - - - - - - - - -
29/07:30pm 29.5 N 3 5 1011.4 - - - - - - - - -
29/07:00pm 29.7 NNW 3 5 1011.2 - - - - - - - - -
29/06:30pm 29.1 N 5 8 1010.8 - - - - - - - - -
29/06:00pm 30.0 NW 3 5 1010.6 - - - - - - - - -
29/05:30pm 30.5 N 3 6 1010.3 - - - - - - - - -

Other Formats:

Comma delimited format used in spreadsheet applications
http://www.bom.gov.au/fwo/IDD60701/IDD60701.95122.axf

JavaScript Object Notation format (JSON) in row-major order
http://www.bom.gov.au/fwo/IDD60701/IDD60701.95122.json